Terminal Aerodrome Forecast
Issued by NWS Cleveland, OH

Home | Current Version | Previous Version | Text Only | Print | Product List | Glossary On
Versions: 1 2 3 4 5 6 7 8 9 10 11 12 13 14 15 16 17 18 19 20 21 22 23 24 25
000
FTUS41 KCLE 282300
TAFCLE
TAF
KCLE 282322Z 0100/0206 VRB04KT P6SM BKN250
     FM010400 13005KT P6SM OVC050
     FM010600 14005KT 4SM -SN SCT015 OVC035
      TEMPO 0106/0109 2SM -SN OVC015
     FM010900 15005KT 1 1/2SM -SN OVC010
     FM011100 16005KT 3/4SM -SN OVC008
     FM011800 24005KT 2SM -SN SCT008 OVC015
     FM012200 27005KT 4SM -SN OVC020
     FM020200 27007KT 6SM -SN OVC025=

USA.gov is the U.S. government's official web portal to all federal, state and local government web resources and services.